sensor_id;sensor_type;location;lat;lon;timestamp;temperature;humidity
22850;DHT22;11591;44.792;10.358;2023-07-08T04:40:53;23.20;99.90
22850;DHT22;11591;44.792;10.358;2023-07-08T04:43:20;23.20;99.90
22850;DHT22;11591;44.792;10.358;2023-07-08T04:45:51;23.20;99.90
22850;DHT22;11591;44.792;10.358;2023-07-08T04:48:19;23.10;99.90
22850;DHT22;11591;44.792;10.358;2023-07-08T04:50:49;23.10;99.90
22850;DHT22;11591;44.792;10.358;2023-07-08T04:53:15;23.20;99.90
22850;DHT22;11591;44.792;10.358;2023-07-08T04:55:44;23.30;99.90
22850;DHT22;11591;44.792;10.358;2023-07-08T04:58:11;23.30;99.90
22850;DHT22;11591;44.792;10.358;2023-07-08T05:00:37;23.40;99.90
22850;DHT22;11591;44.792;10.358;2023-07-08T05:03:02;23.40;99.90
22850;DHT22;11591;44.792;10.358;2023-07-08T05:05:28;23.30;99.90
22850;DHT22;11591;44.792;10.358;2023-07-08T05:07:54;23.40;99.90
22850;DHT22;11591;44.792;10.358;2023-07-08T05:10:20;23.50;99.90
22850;DHT22;11591;44.792;10.358;2023-07-08T05:12:47;23.50;99.90
22850;DHT22;11591;44.792;10.358;2023-07-08T05:15:14;23.40;99.90
22850;DHT22;11591;44.792;10.358;2023-07-08T05:17:41;23.50;99.90
22850;DHT22;11591;44.792;10.358;2023-07-08T05:20:09;23.40;99.90
22850;DHT22;11591;44.792;10.358;2023-07-08T05:22:36;23.40;99.90
22850;DHT22;11591;44.792;10.358;2023-07-08T05:25:02;23.40;99.90
22850;DHT22;11591;44.792;10.358;2023-07-08T05:27:29;23.40;99.90
22850;DHT22;11591;44.792;10.358;2023-07-08T05:29:55;23.40;99.90
22850;DHT22;11591;44.792;10.358;2023-07-08T05:32:20;23.40;99.90
22850;DHT22;11591;44.792;10.358;2023-07-08T05:34:47;23.50;99.90
22850;DHT22;11591;44.792;10.358;2023-07-08T05:37:13;23.60;99.90
22850;DHT22;11591;44.792;10.358;2023-07-08T05:39:39;23.50;99.90
22850;DHT22;11591;44.792;10.358;2023-07-08T05:42:06;23.50;99.90
22850;DHT22;11591;44.792;10.358;2023-07-08T05:44:32;23.50;99.90
22850;DHT22;11591;44.792;10.358;2023-07-08T05:46:58;23.50;99.90
22850;DHT22;11591;44.792;10.358;2023-07-08T05:49:23;23.50;99.90
22850;DHT22;11591;44.792;10.358;2023-07-08T05:51:49;23.50;99.90
22850;DHT22;11591;44.792;10.358;2023-07-08T05:54:15;23.50;99.90
22850;DHT22;11591;44.792;10.358;2023-07-08T05:56:41;23.50;99.90
22850;DHT22;11591;44.792;10.358;2023-07-08T05:59:06;23.60;99.90
22850;DHT22;11591;44.792;10.358;2023-07-08T06:01:33;23.60;99.90
22850;DHT22;11591;44.792;10.358;2023-07-08T06:03:58;23.60;99.90
22850;DHT22;11591;44.792;10.358;2023-07-08T06:06:28;23.60;99.90
22850;DHT22;11591;44.792;10.358;2023-07-08T06:08:54;23.70;99.90
22850;DHT22;11591;44.792;10.358;2023-07-08T06:11:20;23.80;99.90
22850;DHT22;11591;44.792;10.358;2023-07-08T06:13:47;23.80;99.90
22850;DHT22;11591;44.792;10.358;2023-07-08T06:16:13;23.90;99.90
22850;DHT22;11591;44.792;10.358;2023-07-08T06:18:40;23.90;99.90
22850;DHT22;11591;44.792;10.358;2023-07-08T06:21:06;23.90;99.90
22850;DHT22;11591;44.792;10.358;2023-07-08T06:23:32;24.00;99.90
22850;DHT22;11591;44.792;10.358;2023-07-08T06:25:58;24.00;99.90
22850;DHT22;11591;44.792;10.358;2023-07-08T06:28:23;24.00;99.90
22850;DHT22;11591;44.792;10.358;2023-07-08T06:30:50;23.90;99.90
22850;DHT22;11591;44.792;10.358;2023-07-08T06:33:16;24.00;99.90
22850;DHT22;11591;44.792;10.358;2023-07-08T06:35:42;24.10;99.90
22850;DHT22;11591;44.792;10.358;2023-07-08T06:38:08;24.10;99.90
22850;DHT22;11591;44.792;10.358;2023-07-08T06:40:34;24.00;99.90
22850;DHT22;11591;44.792;10.358;2023-07-08T06:43:02;24.20;99.90
22850;DHT22;11591;44.792;10.358;2023-07-08T06:45:37;24.10;99.90
22850;DHT22;11591;44.792;10.358;2023-07-08T06:48:03;24.30;99.90
22850;DHT22;11591;44.792;10.358;2023-07-08T06:50:30;24.30;99.90
22850;DHT22;11591;44.792;10.358;2023-07-08T06:52:56;24.40;99.90
22850;DHT22;11591;44.792;10.358;2023-07-08T06:55:22;24.40;99.90
22850;DHT22;11591;44.792;10.358;2023-07-08T06:57:48;24.50;99.90
22850;DHT22;11591;44.792;10.358;2023-07-08T07:00:14;24.60;99.90
22850;DHT22;11591;44.792;10.358;2023-07-08T07:02:40;24.20;99.90
22850;DHT22;11591;44.792;10.358;2023-07-08T07:05:06;23.90;99.90
22850;DHT22;11591;44.792;10.358;2023-07-08T07:07:32;24.10;99.90
22850;DHT22;11591;44.792;10.358;2023-07-08T07:09:59;24.20;99.90
22850;DHT22;11591;44.792;10.358;2023-07-08T07:12:26;24.40;99.90
22850;DHT22;11591;44.792;10.358;2023-07-08T07:14:52;24.60;99.90
22850;DHT22;11591;44.792;10.358;2023-07-08T07:17:23;24.70;99.90
22850;DHT22;11591;44.792;10.358;2023-07-08T07:19:49;24.80;99.90
22850;DHT22;11591;44.792;10.358;2023-07-08T07:22:15;25.00;99.90
22850;DHT22;11591;44.792;10.358;2023-07-08T07:24:41;25.10;99.90
22850;DHT22;11591;44.792;10.358;2023-07-08T07:27:08;25.10;99.90
22850;DHT22;11591;44.792;10.358;2023-07-08T07:29:43;25.10;99.90
22850;DHT22;11591;44.792;10.358;2023-07-08T07:32:10;25.10;99.90
22850;DHT22;11591;44.792;10.358;2023-07-08T07:34:37;25.20;99.90
22850;DHT22;11591;44.792;10.358;2023-07-08T07:37:04;25.30;99.90
22850;DHT22;11591;44.792;10.358;2023-07-08T07:39:30;25.40;99.90
22850;DHT22;11591;44.792;10.358;2023-07-08T07:41:55;25.40;99.90
22850;DHT22;11591;44.792;10.358;2023-07-08T07:44:21;25.40;99.90
22850;DHT22;11591;44.792;10.358;2023-07-08T07:46:47;25.40;99.90
22850;DHT22;11591;44.792;10.358;2023-07-08T07:49:13;25.40;99.90
22850;DHT22;11591;44.792;10.358;2023-07-08T07:51:39;25.50;99.90
22850;DHT22;11591;44.792;10.358;2023-07-08T07:54:04;25.50;99.90
22850;DHT22;11591;44.792;10.358;2023-07-08T07:56:30;25.30;99.90
22850;DHT22;11591;44.792;10.358;2023-07-08T07:58:57;25.30;99.90
22850;DHT22;11591;44.792;10.358;2023-07-08T08:01:23;25.30;99.90
22850;DHT22;11591;44.792;10.358;2023-07-08T08:03:49;25.30;99.90
22850;DHT22;11591;44.792;10.358;2023-07-08T08:06:17;25.40;99.90
22850;DHT22;11591;44.792;10.358;2023-07-08T08:08:45;25.50;99.90
22850;DHT22;11591;44.792;10.358;2023-07-08T08:11:11;25.60;99.90
22850;DHT22;11591;44.792;10.358;2023-07-08T08:13:37;25.60;99.90
22850;DHT22;11591;44.792;10.358;2023-07-08T08:16:03;25.60;99.90
22850;DHT22;11591;44.792;10.358;2023-07-08T08:18:29;25.60;99.90
22850;DHT22;11591;44.792;10.358;2023-07-08T08:20:55;25.70;99.90
22850;DHT22;11591;44.792;10.358;2023-07-08T08:23:21;25.80;99.90
22850;DHT22;11591;44.792;10.358;2023-07-08T08:25:47;25.80;99.90
22850;DHT22;11591;44.792;10.358;2023-07-08T08:28:13;25.90;99.90
22850;DHT22;11591;44.792;10.358;2023-07-08T08:30:38;25.90;99.90
22850;DHT22;11591;44.792;10.358;2023-07-08T08:33:04;26.00;99.90
22850;DHT22;11591;44.792;10.358;2023-07-08T08:35:30;26.00;99.90
22850;DHT22;11591;44.792;10.358;2023-07-08T08:37:56;26.00;99.90
22850;DHT22;11591;44.792;10.358;2023-07-08T08:40:22;26.10;99.90
22850;DHT22;11591;44.792;10.358;2023-07-08T08:43:02;26.10;99.90
22850;DHT22;11591;44.792;10.358;2023-07-08T08:45:36;26.20;99.90
22850;DHT22;11591;44.792;10.358;2023-07-08T08:48:09;26.20;99.90
22850;DHT22;11591;44.792;10.358;2023-07-08T08:50:47;26.20;99.90
22850;DHT22;11591;44.792;10.358;2023-07-08T08:53:17;26.30;99.90
22850;DHT22;11591;44.792;10.358;2023-07-08T08:55:44;26.30;99.90
22850;DHT22;11591;44.792;10.358;2023-07-08T09:01:02;26.40;99.90
22850;DHT22;11591;44.792;10.358;2023-07-08T09:05:56;26.50;99.90
22850;DHT22;11591;44.792;10.358;2023-07-08T09:08:34;26.50;99.90
22850;DHT22;11591;44.792;10.358;2023-07-08T09:13:52;26.50;99.90
22850;DHT22;11591;44.792;10.358;2023-07-08T09:19:27;26.60;99.90
22850;DHT22;11591;44.792;10.358;2023-07-08T09:22:01;26.60;99.90
22850;DHT22;11591;44.792;10.358;2023-07-08T09:24:36;26.60;99.90
22850;DHT22;11591;44.792;10.358;2023-07-08T09:27:06;26.70;99.90
22850;DHT22;11591;44.792;10.358;2023-07-08T09:29:33;26.70;99.90
22850;DHT22;11591;44.792;10.358;2023-07-08T09:32:08;26.80;99.90
22850;DHT22;11591;44.792;10.358;2023-07-08T09:35:07;26.80;99.90
22850;DHT22;11591;44.792;10.358;2023-07-08T09:37:33;26.80;99.90
22850;DHT22;11591;44.792;10.358;2023-07-08T09:40:01;26.90;99.90
22850;DHT22;11591;44.792;10.358;2023-07-08T09:42:34;26.90;99.90
22850;DHT22;11591;44.792;10.358;2023-07-08T09:45:03;26.90;99.90
22850;DHT22;11591;44.792;10.358;2023-07-08T09:47:36;27.00;99.90
22850;DHT22;11591;44.792;10.358;2023-07-08T09:50:17;27.00;99.90
22850;DHT22;11591;44.792;10.358;2023-07-08T09:52:43;27.00;99.90
22850;DHT22;11591;44.792;10.358;2023-07-08T09:55:12;27.00;99.90
22850;DHT22;11591;44.792;10.358;2023-07-08T09:57:39;27.10;99.90
22850;DHT22;11591;44.792;10.358;2023-07-08T10:00:12;27.10;99.90
22850;DHT22;11591;44.792;10.358;2023-07-08T10:02:43;27.10;99.90
22850;DHT22;11591;44.792;10.358;2023-07-08T10:05:20;27.10;99.90
22850;DHT22;11591;44.792;10.358;2023-07-08T10:07:48;27.20;99.90
22850;DHT22;11591;44.792;10.358;2023-07-08T10:10:19;27.20;99.90
22850;DHT22;11591;44.792;10.358;2023-07-08T10:12:56;27.20;99.90
22850;DHT22;11591;44.792;10.358;2023-07-08T10:15:29;27.20;99.90
22850;DHT22;11591;44.792;10.358;2023-07-08T10:17:56;27.30;99.90
22850;DHT22;11591;44.792;10.358;2023-07-08T10:20:22;27.30;99.90
22850;DHT22;11591;44.792;10.358;2023-07-08T10:25:47;27.40;99.90
22850;DHT22;11591;44.792;10.358;2023-07-08T10:28:44;27.40;99.90
22850;DHT22;11591;44.792;10.358;2023-07-08T10:36:51;27.50;99.90
22850;DHT22;11591;44.792;10.358;2023-07-08T10:47:40;27.70;99.90
22850;DHT22;11591;44.792;10.358;2023-07-08T10:56:09;27.80;99.90
22850;DHT22;11591;44.792;10.358;2023-07-08T11:04:24;27.90;99.90
22850;DHT22;11591;44.792;10.358;2023-07-08T11:09:42;28.00;99.90
22850;DHT22;11591;44.792;10.358;2023-07-08T11:15:20;28.00;99.90
22850;DHT22;11591;44.792;10.358;2023-07-08T11:17:59;28.10;99.90
22850;DHT22;11591;44.792;10.358;2023-07-08T11:20:40;28.10;99.90
22850;DHT22;11591;44.792;10.358;2023-07-08T11:23:25;28.10;99.90
22850;DHT22;11591;44.792;10.358;2023-07-08T11:25:59;28.10;99.90
22850;DHT22;11591;44.792;10.358;2023-07-08T11:28:28;28.10;99.90
22850;DHT22;11591;44.792;10.358;2023-07-08T11:30:56;28.10;99.90
22850;DHT22;11591;44.792;10.358;2023-07-08T11:33:24;28.10;99.90
22850;DHT22;11591;44.792;10.358;2023-07-08T11:35:53;28.10;99.90
22850;DHT22;11591;44.792;10.358;2023-07-08T11:38:22;28.10;99.90
22850;DHT22;11591;44.792;10.358;2023-07-08T11:43:17;28.20;99.90
22850;DHT22;11591;44.792;10.358;2023-07-08T11:45:44;28.20;99.90
22850;DHT22;11591;44.792;10.358;2023-07-08T11:48:18;28.30;99.90
22850;DHT22;11591;44.792;10.358;2023-07-08T11:50:46;28.30;99.90
22850;DHT22;11591;44.792;10.358;2023-07-08T11:53:31;28.30;99.90
22850;DHT22;11591;44.792;10.358;2023-07-08T11:58:32;28.40;99.90
22850;DHT22;11591;44.792;10.358;2023-07-08T12:01:26;28.50;99.90
22850;DHT22;11591;44.792;10.358;2023-07-08T12:04:15;28.50;99.90
22850;DHT22;11591;44.792;10.358;2023-07-08T12:06:46;28.50;99.90
22850;DHT22;11591;44.792;10.358;2023-07-08T12:09:28;28.50;99.90
22850;DHT22;11591;44.792;10.358;2023-07-08T12:12:00;28.60;99.90
22850;DHT22;11591;44.792;10.358;2023-07-08T12:14:28;28.60;99.90
22850;DHT22;11591;44.792;10.358;2023-07-08T12:16:55;28.60;99.90
22850;DHT22;11591;44.792;10.358;2023-07-08T12:19:23;28.60;99.90
22850;DHT22;11591;44.792;10.358;2023-07-08T12:21:51;28.60;99.90
22850;DHT22;11591;44.792;10.358;2023-07-08T12:24:18;28.60;99.90
22850;DHT22;11591;44.792;10.358;2023-07-08T12:26:44;28.60;99.90
22850;DHT22;11591;44.792;10.358;2023-07-08T12:29:13;28.70;99.90
22850;DHT22;11591;44.792;10.358;2023-07-08T12:31:40;28.70;99.90
22850;DHT22;11591;44.792;10.358;2023-07-08T12:34:13;28.70;99.90
22850;DHT22;11591;44.792;10.358;2023-07-08T12:36:41;28.70;99.90
22850;DHT22;11591;44.792;10.358;2023-07-08T12:39:11;28.80;99.90
22850;DHT22;11591;44.792;10.358;2023-07-08T12:41:41;28.80;99.90
22850;DHT22;11591;44.792;10.358;2023-07-08T12:44:17;28.80;99.90
22850;DHT22;11591;44.792;10.358;2023-07-08T12:46:45;28.90;99.90
22850;DHT22;11591;44.792;10.358;2023-07-08T12:49:13;28.90;99.90
22850;DHT22;11591;44.792;10.358;2023-07-08T12:51:42;28.90;99.90
22850;DHT22;11591;44.792;10.358;2023-07-08T12:54:09;28.90;99.90
22850;DHT22;11591;44.792;10.358;2023-07-08T12:56:36;29.00;99.90
22850;DHT22;11591;44.792;10.358;2023-07-08T12:59:04;29.00;99.90
22850;DHT22;11591;44.792;10.358;2023-07-08T13:01:32;29.10;99.90
22850;DHT22;11591;44.792;10.358;2023-07-08T13:04:04;29.20;99.70
22850;DHT22;11591;44.792;10.358;2023-07-08T13:06:32;29.20;99.70
22850;DHT22;11591;44.792;10.358;2023-07-08T13:09:43;29.20;99.90
22850;DHT22;11591;44.792;10.358;2023-07-08T13:12:16;29.20;99.20
22850;DHT22;11591;44.792;10.358;2023-07-08T13:14:43;29.20;99.20
22850;DHT22;11591;44.792;10.358;2023-07-08T13:17:14;29.20;99.10
22850;DHT22;11591;44.792;10.358;2023-07-08T13:19:42;29.20;99.00
22850;DHT22;11591;44.792;10.358;2023-07-08T13:22:19;29.30;99.20
22850;DHT22;11591;44.792;10.358;2023-07-08T13:24:46;29.40;99.30
22850;DHT22;11591;44.792;10.358;2023-07-08T13:27:23;29.30;99.40
22850;DHT22;11591;44.792;10.358;2023-07-08T13:29:56;29.40;99.30
22850;DHT22;11591;44.792;10.358;2023-07-08T13:32:31;29.40;99.20
22850;DHT22;11591;44.792;10.358;2023-07-08T13:34:57;29.40;99.00
22850;DHT22;11591;44.792;10.358;2023-07-08T13:37:23;29.40;99.00
22850;DHT22;11591;44.792;10.358;2023-07-08T13:39:53;29.50;99.00
22850;DHT22;11591;44.792;10.358;2023-07-08T13:42:19;29.50;99.00
22850;DHT22;11591;44.792;10.358;2023-07-08T13:44:46;29.50;99.00
22850;DHT22;11591;44.792;10.358;2023-07-08T13:47:26;29.50;98.80
22850;DHT22;11591;44.792;10.358;2023-07-08T13:50:00;29.50;98.80
22850;DHT22;11591;44.792;10.358;2023-07-08T13:52:29;29.60;98.90
22850;DHT22;11591;44.792;10.358;2023-07-08T13:54:59;29.60;99.00
22850;DHT22;11591;44.792;10.358;2023-07-08T13:57:33;29.80;98.90
22850;DHT22;11591;44.792;10.358;2023-07-08T13:59:59;29.80;98.90
22850;DHT22;11591;44.792;10.358;2023-07-08T14:02:28;29.80;98.60
22850;DHT22;11591;44.792;10.358;2023-07-08T14:04:55;29.80;98.40
22850;DHT22;11591;44.792;10.358;2023-07-08T14:07:28;29.80;98.50
22850;DHT22;11591;44.792;10.358;2023-07-08T14:09:54;29.80;98.20
22850;DHT22;11591;44.792;10.358;2023-07-08T14:12:21;29.90;97.20
22850;DHT22;11591;44.792;10.358;2023-07-08T14:14:47;30.10;97.50
22850;DHT22;11591;44.792;10.358;2023-07-08T14:17:20;30.10;97.80
22850;DHT22;11591;44.792;10.358;2023-07-08T14:19:46;30.20;97.80
22850;DHT22;11591;44.792;10.358;2023-07-08T14:24:39;30.30;98.20
22850;DHT22;11591;44.792;10.358;2023-07-08T14:27:06;30.30;98.40
22850;DHT22;11591;44.792;10.358;2023-07-08T14:29:40;30.40;98.30
22850;DHT22;11591;44.792;10.358;2023-07-08T14:32:30;30.40;98.20
22850;DHT22;11591;44.792;10.358;2023-07-08T14:34:59;30.50;98.30
22850;DHT22;11591;44.792;10.358;2023-07-08T14:37:26;30.50;98.20
22850;DHT22;11591;44.792;10.358;2023-07-08T14:39:51;30.60;98.10
22850;DHT22;11591;44.792;10.358;2023-07-08T14:42:18;30.60;98.10
22850;DHT22;11591;44.792;10.358;2023-07-08T14:44:47;30.70;98.10
22850;DHT22;11591;44.792;10.358;2023-07-08T14:47:16;30.70;98.10
22850;DHT22;11591;44.792;10.358;2023-07-08T14:49:42;30.80;98.20
22850;DHT22;11591;44.792;10.358;2023-07-08T14:52:08;30.80;97.90
22850;DHT22;11591;44.792;10.358;2023-07-08T14:54:34;30.80;97.80
22850;DHT22;11591;44.792;10.358;2023-07-08T14:57:01;30.80;97.20
22850;DHT22;11591;44.792;10.358;2023-07-08T14:59:30;30.90;97.00
22850;DHT22;11591;44.792;10.358;2023-07-08T15:01:58;31.00;96.90
22850;DHT22;11591;44.792;10.358;2023-07-08T15:04:24;31.00;97.00
22850;DHT22;11591;44.792;10.358;2023-07-08T15:06:50;31.10;96.90
22850;DHT22;11591;44.792;10.358;2023-07-08T15:09:17;31.10;97.20
22850;DHT22;11591;44.792;10.358;2023-07-08T15:11:44;31.10;97.30
22850;DHT22;11591;44.792;10.358;2023-07-08T15:14:22;31.10;97.40
22850;DHT22;11591;44.792;10.358;2023-07-08T15:16:50;31.10;97.30
22850;DHT22;11591;44.792;10.358;2023-07-08T15:19:17;31.10;97.30
22850;DHT22;11591;44.792;10.358;2023-07-08T15:21:44;31.10;97.40
22850;DHT22;11591;44.792;10.358;2023-07-08T15:24:12;31.20;97.10
22850;DHT22;11591;44.792;10.358;2023-07-08T15:26:44;31.20;97.30
22850;DHT22;11591;44.792;10.358;2023-07-08T15:29:20;31.20;97.40
22850;DHT22;11591;44.792;10.358;2023-07-08T15:31:46;31.20;97.10
22850;DHT22;11591;44.792;10.358;2023-07-08T15:34:18;31.30;97.20
22850;DHT22;11591;44.792;10.358;2023-07-08T15:36:44;31.30;97.10
22850;DHT22;11591;44.792;10.358;2023-07-08T15:39:10;31.30;97.20
22850;DHT22;11591;44.792;10.358;2023-07-08T15:41:36;31.30;97.00
22850;DHT22;11591;44.792;10.358;2023-07-08T15:44:04;31.30;97.00
22850;DHT22;11591;44.792;10.358;2023-07-08T15:46:44;31.30;97.10
22850;DHT22;11591;44.792;10.358;2023-07-08T15:49:15;31.30;97.10
22850;DHT22;11591;44.792;10.358;2023-07-08T15:51:42;31.30;97.20
22850;DHT22;11591;44.792;10.358;2023-07-08T15:54:10;31.30;96.80
22850;DHT22;11591;44.792;10.358;2023-07-08T15:56:35;31.30;97.00
22850;DHT22;11591;44.792;10.358;2023-07-08T15:59:02;31.30;96.90
22850;DHT22;11591;44.792;10.358;2023-07-08T16:01:28;31.40;97.00
22850;DHT22;11591;44.792;10.358;2023-07-08T16:03:54;31.40;96.90
22850;DHT22;11591;44.792;10.358;2023-07-08T16:06:20;31.50;97.00
22850;DHT22;11591;44.792;10.358;2023-07-08T16:08:46;31.50;96.80
22850;DHT22;11591;44.792;10.358;2023-07-08T16:11:16;31.50;96.70
22850;DHT22;11591;44.792;10.358;2023-07-08T16:13:44;31.50;96.70
22850;DHT22;11591;44.792;10.358;2023-07-08T16:16:11;31.60;96.70
22850;DHT22;11591;44.792;10.358;2023-07-08T16:18:37;31.60;96.80
22850;DHT22;11591;44.792;10.358;2023-07-08T16:21:04;31.60;96.70
22850;DHT22;11591;44.792;10.358;2023-07-08T16:23:30;31.60;96.60
22850;DHT22;11591;44.792;10.358;2023-07-08T16:25:56;31.60;96.70
22850;DHT22;11591;44.792;10.358;2023-07-08T16:28:35;31.50;96.60
22850;DHT22;11591;44.792;10.358;2023-07-08T16:31:19;31.60;96.70
22850;DHT22;11591;44.792;10.358;2023-07-08T16:33:45;31.60;96.80
22850;DHT22;11591;44.792;10.358;2023-07-08T16:36:14;31.70;96.70
22850;DHT22;11591;44.792;10.358;2023-07-08T16:38:40;31.80;96.60
22850;DHT22;11591;44.792;10.358;2023-07-08T16:41:21;31.80;96.50
22850;DHT22;11591;44.792;10.358;2023-07-08T16:43:48;31.90;96.40
22850;DHT22;11591;44.792;10.358;2023-07-08T16:46:16;32.00;96.30
22850;DHT22;11591;44.792;10.358;2023-07-08T16:48:42;32.00;96.10
22850;DHT22;11591;44.792;10.358;2023-07-08T16:51:22;32.10;96.10
22850;DHT22;11591;44.792;10.358;2023-07-08T16:53:50;32.00;96.20
22850;DHT22;11591;44.792;10.358;2023-07-08T16:56:20;32.10;96.30
22850;DHT22;11591;44.792;10.358;2023-07-08T16:58:46;32.10;96.30
22850;DHT22;11591;44.792;10.358;2023-07-08T17:01:20;32.20;96.30
22850;DHT22;11591;44.792;10.358;2023-07-08T17:03:48;32.20;96.20
22850;DHT22;11591;44.792;10.358;2023-07-08T17:06:14;32.30;96.20
22850;DHT22;11591;44.792;10.358;2023-07-08T17:08:40;32.40;96.10
22850;DHT22;11591;44.792;10.358;2023-07-08T17:11:06;32.40;96.10
22850;DHT22;11591;44.792;10.358;2023-07-08T17:13:31;32.50;96.00
22850;DHT22;11591;44.792;10.358;2023-07-08T17:15:57;32.50;95.90
22850;DHT22;11591;44.792;10.358;2023-07-08T17:18:24;32.50;95.80
22850;DHT22;11591;44.792;10.358;2023-07-08T17:20:52;32.60;95.70
22850;DHT22;11591;44.792;10.358;2023-07-08T17:23:20;32.70;95.60
22850;DHT22;11591;44.792;10.358;2023-07-08T17:25:46;32.70;95.60
22850;DHT22;11591;44.792;10.358;2023-07-08T17:28:13;32.80;95.50
22850;DHT22;11591;44.792;10.358;2023-07-08T17:30:41;32.70;95.30
22850;DHT22;11591;44.792;10.358;2023-07-08T17:33:13;32.80;95.30
22850;DHT22;11591;44.792;10.358;2023-07-08T17:35:39;32.90;95.40
22850;DHT22;11591;44.792;10.358;2023-07-08T17:38:10;32.90;95.40
22850;DHT22;11591;44.792;10.358;2023-07-08T17:40:37;32.90;95.30
22850;DHT22;11591;44.792;10.358;2023-07-08T17:43:03;33.00;95.30
22850;DHT22;11591;44.792;10.358;2023-07-08T17:45:41;33.00;95.30
22850;DHT22;11591;44.792;10.358;2023-07-08T17:48:14;32.90;95.30
22850;DHT22;11591;44.792;10.358;2023-07-08T17:50:44;33.00;95.20
22850;DHT22;11591;44.792;10.358;2023-07-08T17:53:10;32.90;95.20
22850;DHT22;11591;44.792;10.358;2023-07-08T17:55:37;32.90;95.30
22850;DHT22;11591;44.792;10.358;2023-07-08T17:58:03;32.80;95.30
22850;DHT22;11591;44.792;10.358;2023-07-08T18:00:29;32.80;95.40
22850;DHT22;11591;44.792;10.358;2023-07-08T18:02:56;32.80;95.50
22850;DHT22;11591;44.792;10.358;2023-07-08T18:05:24;32.70;95.60
22850;DHT22;11591;44.792;10.358;2023-07-08T18:07:52;32.70;95.70
22850;DHT22;11591;44.792;10.358;2023-07-08T18:10:20;32.60;95.80
22850;DHT22;11591;44.792;10.358;2023-07-08T18:12:49;32.60;95.90
22850;DHT22;11591;44.792;10.358;2023-07-08T18:17:45;32.40;95.90
22850;DHT22;11591;44.792;10.358;2023-07-08T18:20:11;32.40;96.00
22850;DHT22;11591;44.792;10.358;2023-07-08T18:22:39;32.40;96.10
22850;DHT22;11591;44.792;10.358;2023-07-08T18:25:17;32.30;96.00
22850;DHT22;11591;44.792;10.358;2023-07-08T18:27:43;32.20;96.10
22850;DHT22;11591;44.792;10.358;2023-07-08T18:30:11;32.20;96.20
22850;DHT22;11591;44.792;10.358;2023-07-08T18:32:37;32.10;96.40
22850;DHT22;11591;44.792;10.358;2023-07-08T18:37:42;32.00;96.40
22850;DHT22;11591;44.792;10.358;2023-07-08T18:40:11;31.80;96.50
22850;DHT22;11591;44.792;10.358;2023-07-08T18:42:37;31.80;96.70
22850;DHT22;11591;44.792;10.358;2023-07-08T18:45:03;31.70;96.80
22850;DHT22;11591;44.792;10.358;2023-07-08T18:47:29;31.60;96.90
22850;DHT22;11591;44.792;10.358;2023-07-08T18:49:55;31.50;97.00
22850;DHT22;11591;44.792;10.358;2023-07-08T18:52:21;31.40;97.00
22850;DHT22;11591;44.792;10.358;2023-07-08T18:54:47;31.40;97.20
22850;DHT22;11591;44.792;10.358;2023-07-08T18:57:13;31.30;97.20
22850;DHT22;11591;44.792;10.358;2023-07-08T18:59:40;31.20;97.40
22850;DHT22;11591;44.792;10.358;2023-07-08T19:02:32;31.10;97.50
22850;DHT22;11591;44.792;10.358;2023-07-08T19:04:59;31.10;97.70
22850;DHT22;11591;44.792;10.358;2023-07-08T19:07:25;31.00;97.80
22850;DHT22;11591;44.792;10.358;2023-07-08T19:09:50;30.90;97.80
22850;DHT22;11591;44.792;10.358;2023-07-08T19:12:18;30.80;97.90
22850;DHT22;11591;44.792;10.358;2023-07-08T19:14:45;30.70;98.00
22850;DHT22;11591;44.792;10.358;2023-07-08T19:17:11;30.70;98.30
22850;DHT22;11591;44.792;10.358;2023-07-08T19:19:37;30.60;98.40
22850;DHT22;11591;44.792;10.358;2023-07-08T19:22:03;30.60;98.70
22850;DHT22;11591;44.792;10.358;2023-07-08T19:24:29;30.60;98.90
22850;DHT22;11591;44.792;10.358;2023-07-08T19:26:55;30.60;99.10
22850;DHT22;11591;44.792;10.358;2023-07-08T19:29:20;30.40;99.20
22850;DHT22;11591;44.792;10.358;2023-07-08T19:31:47;30.40;99.40
22850;DHT22;11591;44.792;10.358;2023-07-08T19:34:14;30.40;99.50
22850;DHT22;11591;44.792;10.358;2023-07-08T19:36:40;30.40;99.70
22850;DHT22;11591;44.792;10.358;2023-07-08T19:39:07;30.30;99.90
22850;DHT22;11591;44.792;10.358;2023-07-08T19:41:35;30.30;99.90
22850;DHT22;11591;44.792;10.358;2023-07-08T19:44:08;30.20;99.90
22850;DHT22;11591;44.792;10.358;2023-07-08T19:46:34;30.20;99.90
22850;DHT22;11591;44.792;10.358;2023-07-08T19:49:00;30.20;99.90
22850;DHT22;11591;44.792;10.358;2023-07-08T19:51:26;30.10;99.90
22850;DHT22;11591;44.792;10.358;2023-07-08T19:53:52;30.10;99.90
22850;DHT22;11591;44.792;10.358;2023-07-08T19:56:19;30.10;99.90
22850;DHT22;11591;44.792;10.358;2023-07-08T19:58:48;30.00;99.90
22850;DHT22;11591;44.792;10.358;2023-07-08T20:01:14;30.00;99.90
22850;DHT22;11591;44.792;10.358;2023-07-08T20:03:40;30.00;99.90
22850;DHT22;11591;44.792;10.358;2023-07-08T20:06:13;30.00;99.90
22850;DHT22;11591;44.792;10.358;2023-07-08T20:08:40;29.90;99.90
22850;DHT22;11591;44.792;10.358;2023-07-08T20:11:08;29.90;99.90
22850;DHT22;11591;44.792;10.358;2023-07-08T20:13:34;29.90;99.90
22850;DHT22;11591;44.792;10.358;2023-07-08T20:16:24;29.90;99.90
22850;DHT22;11591;44.792;10.358;2023-07-08T20:18:50;29.80;99.90
22850;DHT22;11591;44.792;10.358;2023-07-08T20:21:22;29.70;99.90
22850;DHT22;11591;44.792;10.358;2023-07-08T20:23:49;29.60;99.90
22850;DHT22;11591;44.792;10.358;2023-07-08T20:26:34;29.60;99.90
22850;DHT22;11591;44.792;10.358;2023-07-08T20:29:01;29.60;99.90
22850;DHT22;11591;44.792;10.358;2023-07-08T20:31:27;29.50;99.90
22850;DHT22;11591;44.792;10.358;2023-07-08T20:33:53;29.60;99.90
22850;DHT22;11591;44.792;10.358;2023-07-08T20:36:21;29.60;99.90
22850;DHT22;11591;44.792;10.358;2023-07-08T20:38:48;29.60;99.90
22850;DHT22;11591;44.792;10.358;2023-07-08T20:41:15;29.50;99.90
22850;DHT22;11591;44.792;10.358;2023-07-08T20:43:41;29.50;99.90
22850;DHT22;11591;44.792;10.358;2023-07-08T20:46:23;29.50;99.90
22850;DHT22;11591;44.792;10.358;2023-07-08T20:48:56;29.40;99.90
22850;DHT22;11591;44.792;10.358;2023-07-08T20:51:23;29.30;99.90
22850;DHT22;11591;44.792;10.358;2023-07-08T20:53:52;29.40;99.90
22850;DHT22;11591;44.792;10.358;2023-07-08T20:56:26;29.30;99.90
22850;DHT22;11591;44.792;10.358;2023-07-08T20:58:52;29.30;99.90
22850;DHT22;11591;44.792;10.358;2023-07-08T21:01:17;29.30;99.90
